Time;durP1;ratioP1;P1;durP2;ratioP2;P2;SDS_P1;SDS_P2;PMS_P1;PMS_P2;Temp;Humidity;BMP_temperature;BMP_pressure;BME280_temperature;BME280_humidity;BME280_pressure;Samples;Min_cycle;Max_cycle;Signal;HPM_P1;HPM_P2
2021/01/10 00:01:18;;;;;;;27.45;15.25;;;-0.90;86.90;;;-1.59;81.96;98701.41;5099110;28;20227;-80
2021/01/10 00:03:46;;;;;;;25.05;14.65;;;-0.80;87.40;;;-1.60;82.00;98706.56;5098599;28;20208;-80
2021/01/10 00:06:13;;;;;;;26.75;14.35;;;-0.90;87.30;;;-1.61;82.08;98715.06;5098311;28;20213;-80
2021/01/10 00:08:42;;;;;;;25.48;14.23;;;-1.00;86.90;;;-1.63;82.04;98709.13;5096692;28;20193;-80
2021/01/10 00:11:09;;;;;;;29.17;14.82;;;-0.90;87.60;;;-1.65;82.16;98708.31;5098762;28;20258;-80
2021/01/10 00:13:39;;;;;;;22.50;13.50;;;-1.00;87.40;;;-1.70;81.67;98704.94;5081000;28;20212;-80
2021/01/10 00:16:07;;;;;;;23.77;14.23;;;-1.00;86.70;;;-1.70;81.21;98704.94;5097322;28;20212;-80
2021/01/10 00:18:35;;;;;;;30.63;13.82;;;-1.00;86.10;;;-1.75;81.21;98706.72;5080061;28;20668;-80
2021/01/10 00:21:03;;;;;;;24.08;13.95;;;-1.10;86.40;;;-1.74;81.57;98698.19;5098269;28;20724;-80
2021/01/10 00:23:31;;;;;;;23.45;14.07;;;-1.10;86.50;;;-1.74;81.61;98710.97;5080396;28;20193;-80
2021/01/10 00:25:59;;;;;;;24.17;13.90;;;-1.10;86.40;;;-1.76;81.71;98710.13;5094560;28;20254;-80
2021/01/10 00:28:27;;;;;;;23.73;14.10;;;-1.10;87.20;;;-1.84;81.73;98709.38;5093298;28;20226;-80
2021/01/10 00:30:54;;;;;;;23.92;14.25;;;-1.10;87.00;;;-1.84;81.63;98709.38;5078536;28;20221;-80
2021/01/10 00:33:22;;;;;;;26.73;14.23;;;-1.10;86.60;;;-1.83;81.78;98708.50;5077769;28;20229;-80
2021/01/10 00:35:50;;;;;;;27.42;15.00;;;-1.10;86.30;;;-1.85;81.63;98698.31;5093132;28;20212;-80
2021/01/10 00:38:17;;;;;;;26.63;15.25;;;-1.10;86.80;;;-1.87;81.69;98701.72;5079010;28;20201;-80
2021/01/10 00:40:45;;;;;;;29.75;14.90;;;-1.20;86.90;;;-1.87;81.29;98702.56;5079729;28;20653;-80
2021/01/10 00:43:13;;;;;;;26.98;14.45;;;-1.20;86.20;;;-1.88;81.61;98697.47;5097531;28;20577;-80
2021/01/10 00:45:41;;;;;;;33.45;16.38;;;-1.20;86.40;;;-1.86;81.20;98699.16;5096269;28;20219;-80
2021/01/10 00:48:09;;;;;;;29.20;15.35;;;-1.20;86.10;;;-1.89;81.49;98692.38;5096601;28;20254;-80
2021/01/10 00:50:39;;;;;;;36.25;17.70;;;-1.20;86.70;;;-1.87;81.05;98702.56;5079412;28;20319;-80
2021/01/10 00:53:11;;;;;;;29.13;15.63;;;-1.20;86.10;;;-1.91;81.55;98705.16;5096525;28;20661;-80
2021/01/10 00:55:41;;;;;;;30.77;16.52;;;-1.20;86.30;;;-1.91;81.55;98712.81;5096621;28;20875;-80
2021/01/10 00:58:10;;;;;;;27.30;15.45;;;-1.20;86.90;;;-1.90;81.81;98711.97;5096371;28;20790;-79
2021/01/10 01:00:40;;;;;;;29.98;15.95;;;-1.20;87.10;;;-1.93;81.83;98714.56;5096388;28;20675;-79
2021/01/10 01:03:09;;;;;;;28.27;15.63;;;-1.20;87.40;;;-1.99;81.55;98714.63;5096457;28;20691;-80
2021/01/10 01:05:39;;;;;;;21.38;13.38;;;-1.30;87.00;;;-2.03;81.52;98710.44;5095612;28;20200;-80
2021/01/10 01:08:07;;;;;;;26.75;14.02;;;-1.30;86.50;;;-2.00;80.98;98712.09;5097571;28;20553;-80
2021/01/10 01:10:47;;;;;;;23.13;14.70;;;-1.30;86.50;;;-2.01;81.39;98718.06;5095573;28;20205;-80
2021/01/10 01:13:15;;;;;;;27.80;14.88;;;-1.30;86.40;;;-2.06;81.43;98714.69;5096211;28;20221;-80
2021/01/10 01:15:43;;;;;;;29.95;16.30;;;-1.40;86.70;;;-2.05;81.93;98722.34;5096293;28;20618;-79
2021/01/10 01:18:11;;;;;;;29.13;16.10;;;-1.40;86.80;;;-2.05;82.17;98731.72;5097318;28;20683;-79
2021/01/10 01:20:39;;;;;;;25.80;14.77;;;-1.40;87.90;;;-2.08;82.03;98732.59;5097355;28;20626;-79
2021/01/10 01:23:06;;;;;;;26.90;15.60;;;-1.40;87.60;;;-2.10;82.02;98736.88;5097431;28;20196;-80
2021/01/10 01:25:44;;;;;;;28.45;15.90;;;-1.40;87.10;;;-2.13;81.43;98734.34;5097171;28;20659;-80
2021/01/10 01:28:12;;;;;;;25.70;14.35;;;-1.40;86.40;;;-2.16;81.04;98739.47;5094857;28;20307;-80
2021/01/10 01:30:40;;;;;;;20.73;13.25;;;-1.40;86.50;;;-2.21;80.80;98741.22;5095532;28;20200;-80
2021/01/10 01:33:09;;;;;;;24.83;14.93;;;-1.50;85.80;;;-2.23;80.99;98735.25;5097583;28;20223;-80
2021/01/10 01:35:36;;;;;;;31.70;15.55;;;-1.50;86.10;;;-2.25;81.44;98739.53;5096970;28;20192;-80
2021/01/10 01:38:04;;;;;;;28.35;14.40;;;-1.50;86.30;;;-2.24;81.36;98751.47;5096856;28;20671;-80
2021/01/10 01:40:32;;;;;;;26.65;15.10;;;-1.50;86.90;;;-2.19;81.38;98743.78;5095001;28;20212;-79
2021/01/10 01:43:00;;;;;;;24.90;13.50;;;-1.50;86.90;;;-2.24;81.54;98743.81;5095062;28;20189;-79
2021/01/10 01:45:27;;;;;;;21.95;13.45;;;-1.50;86.90;;;-2.26;81.18;98747.22;5093754;28;20679;-80
2021/01/10 01:47:55;;;;;;;25.90;14.32;;;-1.60;86.30;;;-2.28;81.98;98737.03;5095894;28;21131;-80
2021/01/10 01:50:24;;;;;;;20.95;13.45;;;-1.60;87.30;;;-2.25;82.27;98744.66;5095985;28;20227;-80
2021/01/10 01:52:51;;;;;;;25.13;13.25;;;-1.60;87.90;;;-2.22;82.39;98733.59;5095646;28;20558;-80
2021/01/10 01:55:19;;;;;;;24.70;14.10;;;-1.50;88.30;;;-2.24;82.35;98740.38;5093971;28;20663;-80
2021/01/10 01:57:47;;;;;;;26.90;15.20;;;-1.50;88.20;;;-2.26;81.83;98739.56;5096708;28;20556;-79
2021/01/10 02:00:16;;;;;;;30.58;15.32;;;-1.60;87.50;;;-2.28;81.89;98742.13;5095207;28;20394;-79
2021/01/10 02:02:44;;;;;;;29.55;15.35;;;-1.60;87.30;;;-2.35;81.28;98757.50;5095361;28;20315;-79
2021/01/10 02:05:17;;;;;;;28.55;15.95;;;-1.60;86.70;;;-2.38;81.34;98747.31;5095177;28;20208;-79
2021/01/10 02:07:55;;;;;;;29.90;15.60;;;-1.70;86.30;;;-2.34;81.13;98748.16;5091081;28;20402;-79
2021/01/10 02:10:29;;;;;;;34.60;18.73;;;-1.70;85.50;;;-2.38;81.23;98752.41;5094615;28;20746;-79
2021/01/10 02:13:01;;;;;;;25.95;15.45;;;-1.70;86.40;;;-2.37;81.34;98753.28;5078902;28;20226;-79
2021/01/10 02:15:33;;;;;;;28.15;15.25;;;-1.70;86.30;;;-2.42;80.55;98749.91;5080631;28;20205;-79
2021/01/10 02:18:04;;;;;;;21.27;13.10;;;-1.70;85.30;;;-2.39;80.46;98749.88;5096511;28;20220;-79
2021/01/10 02:20:34;;;;;;;26.30;13.35;;;-1.70;85.20;;;-2.40;80.62;98750.75;5096589;28;20240;-79
2021/01/10 02:23:08;;;;;;;21.58;12.95;;;-1.70;85.50;;;-2.44;81.15;98746.53;5095642;28;20197;-79
2021/01/10 02:25:38;;;;;;;22.65;12.98;;;-1.70;86.20;;;-2.42;81.59;98743.09;5097183;28;20208;-79
2021/01/10 02:28:09;;;;;;;23.58;13.43;;;-1.70;86.90;;;-2.40;81.89;98738.00;5096442;28;20283;-79
2021/01/10 02:30:39;;;;;;;22.67;12.85;;;-1.70;86.70;;;-2.41;81.95;98746.50;5096353;28;20636;-79
2021/01/10 02:33:13;;;;;;;25.80;15.50;;;-1.70;87.50;;;-2.43;81.66;98749.06;5096338;28;20220;-79
2021/01/10 02:35:42;;;;;;;31.05;16.08;;;-1.70;87.00;;;-2.45;81.16;98743.13;5095725;28;20201;-79
2021/01/10 02:38:43;;;;;;;24.25;14.00;;;-1.70;85.90;;;-2.41;80.81;98744.78;5078232;28;20205;-79
2021/01/10 02:41:28;;;;;;;25.42;13.70;;;-1.70;86.30;;;-2.49;80.78;98745.72;4997118;28;20207;-79
2021/01/10 02:44:07;;;;;;;24.25;14.45;;;-1.80;85.90;;;-2.49;80.82;98741.44;5087965;28;20213;-79
2021/01/10 02:46:37;;;;;;;23.08;12.57;;;-1.80;85.60;;;-2.52;80.04;98730.44;5096268;28;20216;-79
2021/01/10 02:49:05;;;;;;;16.13;10.32;;;-1.80;85.20;;;-2.51;80.88;98738.06;5077929;28;20304;-79
2021/01/10 02:51:33;;;;;;;22.92;12.07;;;-1.80;85.50;;;-2.56;80.75;98736.41;5094489;28;20205;-80
2021/01/10 02:54:00;;;;;;;21.42;10.88;;;-1.80;85.80;;;-2.53;81.26;98733.81;5095264;28;20225;-80
2021/01/10 02:56:33;;;;;;;16.92;11.18;;;-1.80;86.40;;;-2.48;81.31;98721.88;5094609;28;20209;-80
2021/01/10 02:59:04;;;;;;;20.63;11.20;;;-1.80;86.60;;;-2.47;80.82;98723.56;5094885;28;20236;-80
2021/01/10 03:01:33;;;;;;;20.55;10.35;;;-1.80;86.10;;;-2.47;81.01;98721.03;5096203;28;20260;-80
2021/01/10 03:04:03;;;;;;;18.77;10.27;;;-1.80;86.20;;;-2.49;81.41;98730.41;5078445;28;20197;-80
2021/01/10 03:06:31;;;;;;;20.05;11.20;;;-1.80;86.40;;;-2.45;81.48;98719.28;5094700;28;20629;-80
2021/01/10 03:08:59;;;;;;;16.75;10.43;;;-1.70;86.90;;;-2.39;81.40;98726.91;5100023;28;20201;-80
2021/01/10 03:11:28;;;;;;;19.65;10.65;;;-1.70;86.90;;;-2.40;81.21;98718.41;5097763;28;20204;-80
2021/01/10 03:13:57;;;;;;;25.02;12.55;;;-1.70;86.40;;;-2.32;81.09;98717.47;5099216;28;20213;-80
2021/01/10 03:16:25;;;;;;;29.83;13.75;;;-1.60;86.40;;;-2.31;81.68;98726.84;5099168;28;20283;-79
2021/01/10 03:18:53;;;;;;;29.15;14.07;;;-1.60;87.00;;;-2.24;81.57;98720.81;5099327;28;20217;-79
2021/01/10 03:21:21;;;;;;;21.40;12.48;;;-1.60;86.30;;;-2.23;81.53;98727.59;5081140;28;20196;-79
2021/01/10 03:23:49;;;;;;;18.13;10.70;;;-1.50;87.40;;;-2.20;81.80;98725.03;5098533;28;20228;-79
2021/01/10 03:26:16;;;;;;;21.13;11.02;;;-1.50;86.80;;;-2.15;82.08;98718.19;5099279;28;20740;-79
2021/01/10 03:28:44;;;;;;;19.95;12.45;;;-1.50;88.10;;;-2.11;82.22;98719.00;5081544;28;20205;-79
2021/01/10 03:31:12;;;;;;;20.45;12.18;;;-1.40;88.30;;;-2.02;82.30;98722.31;5098210;28;20208;-80
2021/01/10 03:33:45;;;;;;;20.40;10.57;;;-1.40;87.50;;;-2.03;82.29;98712.97;5098372;28;20221;-80
2021/01/10 03:36:13;;;;;;;20.27;10.63;;;-1.40;88.20;;;-1.99;82.37;98711.22;5098826;28;20213;-80
2021/01/10 03:38:41;;;;;;;17.15;10.38;;;-1.30;87.90;;;-1.98;82.35;98713.78;5080905;28;20730;-79
2021/01/10 03:41:10;;;;;;;19.17;11.25;;;-1.30;88.30;;;-1.89;82.23;98718.78;5097042;28;20211;-80
2021/01/10 03:43:38;;;;;;;17.08;10.52;;;-1.20;88.20;;;-1.89;82.17;98712.81;5097632;28;20684;-80
2021/01/10 03:46:06;;;;;;;20.23;10.90;;;-1.20;87.70;;;-1.89;82.28;98718.78;5098787;28;20205;-80
2021/01/10 03:48:36;;;;;;;16.42;10.10;;;-1.20;87.70;;;-1.84;82.30;98709.38;5097562;28;20196;-79
2021/01/10 03:51:06;;;;;;;18.48;10.45;;;-1.20;88.90;;;-1.82;82.15;98711.06;5097354;28;20189;-79
2021/01/10 03:53:35;;;;;;;19.15;10.98;;;-1.10;88.30;;;-1.80;82.44;98709.31;5097254;28;20220;-79
2021/01/10 03:56:03;;;;;;;18.65;10.48;;;-1.10;88.20;;;-1.78;82.05;98709.31;5080464;28;20201;-79
2021/01/10 03:58:30;;;;;;;20.15;10.85;;;-1.10;88.00;;;-1.73;82.23;98708.41;5097118;28;20193;-79
2021/01/10 04:00:58;;;;;;;22.65;11.45;;;-1.10;88.10;;;-1.68;82.27;98706.63;5080811;28;20250;-79
2021/01/10 04:03:26;;;;;;;18.80;10.60;;;-1.00;88.20;;;-1.67;82.08;98704.91;5097449;28;20196;-79
2021/01/10 04:05:54;;;;;;;18.10;11.18;;;-1.00;87.60;;;-1.66;82.35;98701.50;5097546;28;20208;-79
2021/01/10 04:08:22;;;;;;;16.30;10.05;;;-1.00;87.90;;;-1.58;82.58;98704.81;5098661;28;20212;-79
2021/01/10 04:10:50;;;;;;;19.70;11.73;;;-1.00;88.70;;;-1.59;81.96;98708.25;5098307;28;20661;-79
2021/01/10 04:13:18;;;;;;;18.75;10.93;;;-1.00;88.30;;;-1.60;82.12;98714.22;5079824;28;20217;-79
2021/01/10 04:15:46;;;;;;;16.35;10.00;;;-0.90;88.40;;;-1.59;82.49;98715.91;5086933;28;20251;-80
2021/01/10 04:18:14;;;;;;;14.43;9.35;;;-1.00;88.40;;;-1.56;82.38;98710.78;5079877;28;20193;-80
2021/01/10 04:20:41;;;;;;;16.05;9.25;;;-0.90;88.00;;;-1.54;82.47;98714.16;5098069;28;20656;-80
2021/01/10 04:23:10;;;;;;;17.50;9.75;;;-0.90;87.90;;;-1.51;83.04;98706.44;5098252;28;20200;-79
2021/01/10 04:25:39;;;;;;;19.15;9.98;;;-0.80;89.30;;;-1.45;83.17;98708.94;5097902;28;20196;-79
2021/01/10 04:28:06;;;;;;;17.75;10.20;;;-0.80;89.50;;;-1.46;83.02;98715.75;5080031;28;20217;-79
2021/01/10 04:30:34;;;;;;;16.15;9.55;;;-0.80;89.40;;;-1.41;82.85;98711.44;5089870;28;20220;-80
2021/01/10 04:33:02;;;;;;;17.10;9.48;;;-0.80;89.60;;;-1.38;83.27;98714.78;5097188;28;20229;-79
2021/01/10 04:35:30;;;;;;;13.70;9.55;;;-0.70;89.70;;;-1.31;83.50;98711.31;5098483;28;20201;-79
2021/01/10 04:37:58;;;;;;;15.55;9.32;;;-0.70;89.30;;;-1.27;83.36;98705.28;5097305;28;20212;-79
2021/01/10 04:40:26;;;;;;;14.60;9.40;;;-0.60;90.00;;;-1.23;83.62;98719.72;5096959;28;20216;-80
2021/01/10 04:42:55;;;;;;;11.48;8.15;;;-0.60;90.00;;;-1.16;83.06;98716.22;5096653;28;20597;-79
2021/01/10 04:45:23;;;;;;;17.55;8.27;;;-0.50;89.90;;;-1.18;82.84;98706.88;5098155;28;20824;-79
2021/01/10 04:47:51;;;;;;;17.98;9.50;;;-0.50;89.40;;;-1.14;83.45;98706.81;5097777;28;20201;-79
2021/01/10 04:50:19;;;;;;;17.23;9.20;;;-0.50;89.40;;;-1.10;83.19;98702.50;5097746;28;20235;-79
2021/01/10 04:52:47;;;;;;;13.38;8.27;;;-0.50;89.60;;;-1.05;83.28;98708.41;5097862;28;20224;-79
2021/01/10 04:55:15;;;;;;;15.45;9.43;;;-0.40;89.40;;;-1.02;83.22;98714.34;5097492;28;20730;-79
2021/01/10 04:57:46;;;;;;;16.17;8.75;;;-0.40;89.70;;;-1.01;83.14;98713.44;5096392;28;20204;-79
2021/01/10 05:00:18;;;;;;;17.42;9.32;;;-0.40;89.50;;;-0.96;83.13;98724.50;5096533;28;20248;-79
2021/01/10 05:03:04;;;;;;;13.55;8.40;;;-0.30;89.70;;;-0.94;83.17;98715.06;5111642;28;20268;-79
2021/01/10 05:05:37;;;;;;;15.23;8.90;;;-0.30;89.70;;;-0.85;82.87;98712.38;5096666;28;20197;-79
2021/01/10 05:08:07;;;;;;;14.95;9.60;;;-0.30;89.30;;;-0.94;82.76;98708.22;5097032;28;20205;-79
2021/01/10 05:10:35;;;;;;;15.25;9.50;;;-0.30;88.60;;;-0.90;83.11;98709.06;5096742;28;20209;-79
2021/01/10 05:13:04;;;;;;;15.18;8.90;;;-0.20;89.40;;;-0.86;83.08;98709.00;5096580;28;20786;-79
2021/01/10 05:15:33;;;;;;;18.80;8.90;;;-0.20;89.50;;;-0.80;82.82;98713.16;5096160;28;20205;-79
2021/01/10 05:18:01;;;;;;;15.20;8.68;;;-0.20;90.10;;;-0.84;83.34;98714.09;5095573;28;20193;-79
2021/01/10 05:20:34;;;;;;;15.05;8.85;;;-0.20;90.00;;;-0.82;83.69;98710.63;5095123;28;20612;-79
2021/01/10 05:23:03;;;;;;;15.00;8.93;;;-0.20;89.90;;;-0.76;83.43;98717.38;5096801;28;20296;-79
2021/01/10 05:25:31;;;;;;;15.93;9.70;;;-0.10;89.90;;;-0.76;83.22;98707.16;5078936;28;20640;-79
2021/01/10 05:27:58;;;;;;;12.77;8.38;;;-0.10;90.00;;;-0.70;83.31;98724.97;5095446;28;20609;-79
2021/01/10 05:30:30;;;;;;;12.20;8.48;;;0.00;89.40;;;-0.73;83.15;98727.56;5096030;28;20710;-79
2021/01/10 05:33:00;;;;;;;14.05;8.80;;;-0.10;89.00;;;-0.71;83.69;98730.94;5097142;28;20224;-80
2021/01/10 05:35:27;;;;;;;16.25;9.20;;;-0.10;90.10;;;-0.72;83.46;98719.88;5096973;28;20201;-80
2021/01/10 05:37:57;;;;;;;16.63;8.95;;;-0.10;89.70;;;-0.71;83.19;98721.53;5097103;28;20264;-80
2021/01/10 05:40:32;;;;;;;12.63;8.53;;;-0.10;89.80;;;-0.71;83.35;98716.44;5097329;28;20704;-80
2021/01/10 05:43:09;;;;;;;12.93;8.07;;;-0.10;89.80;;;-0.73;83.12;98710.50;5096995;28;20637;-80
2021/01/10 05:45:38;;;;;;;14.80;8.83;;;-0.10;89.30;;;-0.71;83.67;98711.31;5095769;28;20204;-80
2021/01/10 05:48:14;;;;;;;13.23;8.40;;;0.00;89.90;;;-0.70;83.83;98717.28;5095535;28;20622;-80
2021/01/10 05:50:44;;;;;;;13.95;9.30;;;0.00;90.20;;;-0.67;83.77;98714.69;5095630;28;20192;-80
2021/01/10 05:53:20;;;;;;;14.57;8.83;;;0.00;90.20;;;-0.65;83.81;98718.91;5096195;28;20220;-80
2021/01/10 05:55:57;;;;;;;17.30;9.15;;;0.00;90.20;;;-0.64;83.77;98709.53;5095408;28;20618;-80
2021/01/10 05:58:27;;;;;;;21.42;9.23;;;0.00;90.20;;;-0.62;84.08;98721.41;5094847;28;20679;-80
2021/01/10 06:00:55;;;;;;;14.40;8.10;;;0.00;90.30;;;-0.56;83.67;98720.50;5096733;28;20205;-80
2021/01/10 06:03:26;;;;;;;13.05;8.30;;;0.10;90.30;;;-0.55;83.46;98720.47;5096811;28;20204;-80
2021/01/10 06:05:56;;;;;;;15.53;8.10;;;0.10;90.50;;;-0.53;83.42;98715.31;5095406;28;20220;-79
2021/01/10 06:08:33;;;;;;;14.25;7.82;;;0.10;89.40;;;-0.51;83.53;98713.56;5112397;28;20698;-79
2021/01/10 06:11:25;;;;;;;13.73;7.93;;;0.10;90.00;;;-0.49;83.43;98717.81;5095298;28;20644;-80
2021/01/10 06:13:58;;;;;;;17.00;8.93;;;0.10;90.10;;;-0.47;84.05;98727.19;5095366;28;21039;-79
2021/01/10 06:16:28;;;;;;;14.15;8.65;;;0.20;90.60;;;-0.42;83.76;98720.25;5090387;28;20394;-79
2021/01/10 06:18:59;;;;;;;13.27;8.13;;;0.20;90.30;;;-0.39;83.89;98727.91;5096563;28;20295;-79
2021/01/10 06:21:29;;;;;;;12.30;8.02;;;0.30;90.50;;;-0.34;83.93;98727.81;5079031;28;21048;-79
2021/01/10 06:23:59;;;;;;;11.82;7.15;;;0.30;90.40;;;-0.35;83.98;98728.69;5078431;28;20197;-79
2021/01/10 06:26:28;;;;;;;15.07;8.45;;;0.30;90.40;;;-0.40;83.67;98733.88;5096762;28;20201;-79
2021/01/10 06:28:59;;;;;;;14.50;8.55;;;0.20;90.30;;;-0.41;84.00;98724.53;5095163;28;20232;-79
2021/01/10 06:31:31;;;;;;;10.80;7.25;;;0.20;90.10;;;-0.36;83.86;98727.84;5095076;28;20201;-79
2021/01/10 06:34:05;;;;;;;14.82;8.80;;;0.20;90.50;;;-0.39;84.20;98727.06;5082433;28;20229;-79
2021/01/10 06:36:35;;;;;;;14.38;8.63;;;0.20;90.60;;;-0.37;84.24;98723.59;5095983;28;20587;-79
2021/01/10 06:39:10;;;;;;;16.40;8.60;;;0.30;90.80;;;-0.34;84.77;98730.38;5095137;28;20601;-79
2021/01/10 06:42:12;;;;;;;17.95;8.63;;;0.30;90.90;;;-0.30;84.82;98721.78;5096821;28;20688;-80
2021/01/10 06:44:46;;;;;;;15.02;8.60;;;0.30;90.80;;;-0.31;84.46;98738.03;5100595;28;20223;-80
2021/01/10 06:47:31;;;;;;;20.83;10.18;;;0.40;90.80;;;-0.34;84.45;98732.94;5098573;28;20204;-80
2021/01/10 06:49:59;;;;;;;18.70;9.93;;;0.30;90.60;;;-0.33;84.30;98730.38;5099532;28;20304;-80
2021/01/10 06:52:29;;;;;;;17.25;8.75;;;0.30;90.70;;;-0.36;84.35;98730.41;5098311;28;20227;-80
2021/01/10 06:54:58;;;;;;;16.80;9.43;;;0.30;90.60;;;-0.33;84.60;98727.81;5098495;28;20612;-80
2021/01/10 06:57:31;;;;;;;16.75;9.45;;;0.30;90.60;;;-0.30;83.93;98725.19;5095109;28;20260;-79
2021/01/10 07:00:11;;;;;;;20.85;10.63;;;0.40;90.60;;;-0.32;84.18;98726.06;5079657;28;20208;-79
2021/01/10 07:03:07;;;;;;;14.48;8.38;;;0.40;90.50;;;-0.34;83.96;98728.66;5078663;28;20293;-79
2021/01/10 07:06:12;;;;;;;22.13;11.20;;;0.40;90.40;;;-0.37;83.62;98722.75;5104848;28;20564;-79
2021/01/10 07:08:43;;;;;;;22.75;12.93;;;0.30;90.20;;;-0.40;84.14;98723.63;5081927;28;20634;-79
2021/01/10 07:11:35;;;;;;;22.70;13.82;;;0.30;90.10;;;-0.42;83.19;98720.25;5097267;28;20544;-80
2021/01/10 07:14:28;;;;;;;23.03;12.90;;;0.30;90.00;;;-0.45;83.47;98728.00;5098013;28;20224;-80
2021/01/10 07:17:17;;;;;;;25.47;14.00;;;0.20;90.00;;;-0.51;83.13;98728.94;5097727;28;20626;-80
2021/01/10 07:19:50;;;;;;;21.37;12.37;;;0.20;90.00;;;-0.50;83.40;98728.91;5099512;28;20595;-80
2021/01/10 07:22:30;;;;;;;20.83;12.35;;;0.20;89.90;;;-0.49;83.23;98722.94;5099919;28;20610;-80
2021/01/10 07:25:36;;;;;;;18.02;11.27;;;0.10;89.50;;;-0.55;83.65;98733.28;5081493;28;20211;-80
2021/01/10 07:28:31;;;;;;;17.67;12.10;;;0.10;89.80;;;-0.53;82.93;98730.69;5100166;28;20220;-80
2021/01/10 07:31:10;;;;;;;16.35;10.60;;;0.10;89.50;;;-0.59;82.49;98733.34;5097775;28;20618;-80
2021/01/10 07:33:38;;;;;;;17.30;10.55;;;0.10;89.00;;;-0.65;83.29;98744.50;5097872;28;20639;-79
2021/01/10 07:36:07;;;;;;;16.42;10.40;;;0.00;89.50;;;-0.66;83.40;98745.38;5099140;28;20247;-79
2021/01/10 07:38:37;;;;;;;15.73;9.60;;;0.00;90.00;;;-0.65;83.14;98744.50;5099106;28;20197;-80
2021/01/10 07:41:25;;;;;;;16.77;9.80;;;0.00;89.70;;;-0.71;82.33;98747.16;5089306;28;20217;-80
2021/01/10 07:43:55;;;;;;;17.03;9.33;;;0.00;88.50;;;-0.70;82.01;98748.00;5099640;28;20224;-80
2021/01/10 07:46:59;;;;;;;14.40;9.43;;;0.00;88.30;;;-0.75;82.33;98744.66;5081340;28;20698;-80
2021/01/10 07:49:50;;;;;;;19.00;12.50;;;-0.10;88.40;;;-0.77;82.87;98747.22;5081050;28;20223;-80
2021/01/10 07:52:56;;;;;;;20.08;10.13;;;-0.10;89.20;;;-0.78;82.25;98747.28;5080502;28;21216;-80
2021/01/10 07:55:30;;;;;;;17.88;9.88;;;-0.10;88.80;;;-0.76;82.20;98748.94;5078499;28;20219;-80
2021/01/10 07:58:18;;;;;;;14.93;9.23;;;-0.10;88.50;;;-0.55;81.37;98747.81;5090635;28;20209;-80
2021/01/10 08:00:54;;;;;;;15.60;9.02;;;0.00;88.40;;;-0.39;81.93;98761.19;5098266;28;20193;-80
2021/01/10 08:03:23;;;;;;;18.02;11.13;;;0.10;88.30;;;-0.32;81.67;98757.66;5097579;28;20196;-80
2021/01/10 08:06:00;;;;;;;18.20;10.85;;;0.30;88.70;;;-0.39;82.39;98755.25;5099155;28;20192;-80
2021/01/10 08:08:44;;;;;;;20.70;10.13;;;0.20;88.30;;;-0.44;82.09;98760.44;5099292;28;20227;-80
2021/01/10 08:11:13;;;;;;;17.60;11.27;;;0.20;88.10;;;-0.45;81.88;98758.72;5081041;28;20195;-80
2021/01/10 08:13:44;;;;;;;19.40;11.13;;;0.20;87.80;;;-0.35;81.67;98762.81;5113559;28;20315;-80
2021/01/10 08:16:13;;;;;;;19.08;11.43;;;0.30;88.20;;;-0.32;81.96;98767.06;5098445;28;20295;-80
2021/01/10 08:18:46;;;;;;;19.95;13.55;;;0.30;87.80;;;-0.16;82.53;98764.25;5098602;28;20259;-80
2021/01/10 08:21:16;;;;;;;21.00;13.68;;;0.50;89.20;;;0.05;81.99;98764.75;5080360;28;20201;-80
2021/01/10 08:23:53;;;;;;;17.95;12.40;;;0.60;89.40;;;0.27;82.19;98771.22;5097378;28;20216;-80
2021/01/10 08:26:22;;;;;;;17.33;11.00;;;0.80;90.10;;;0.49;82.02;98768.22;5097008;28;20205;-80
2021/01/10 08:28:53;;;;;;;40.55;20.85;;;1.00;89.60;;;0.65;81.82;98771.38;5096651;28;20204;-80
2021/01/10 08:31:22;;;;;;;26.47;17.50;;;1.10;89.40;;;0.86;81.19;98773.50;5096469;28;20201;-80
2021/01/10 08:33:58;;;;;;;21.33;14.07;;;1.30;88.40;;;1.04;81.44;98776.56;5096851;28;20638;-80
2021/01/10 08:36:27;;;;;;;20.07;11.87;;;1.50;88.30;;;1.17;80.64;98785.69;5096695;28;20608;-80
2021/01/10 08:38:58;;;;;;;18.03;10.83;;;1.60;87.70;;;1.23;79.55;98777.84;5096894;28;20603;-80
2021/01/10 08:41:30;;;;;;;16.80;10.90;;;1.70;86.90;;;1.38;79.79;98770.66;5097172;28;20615;-80
2021/01/10 08:44:00;;;;;;;18.35;11.50;;;1.80;88.10;;;1.44;79.97;98776.53;5097485;28;20598;-80
2021/01/10 08:46:29;;;;;;;16.70;11.03;;;1.90;86.90;;;1.45;79.23;98777.38;5080603;28;20203;-80
2021/01/10 08:48:58;;;;;;;16.33;11.30;;;1.90;85.30;;;1.54;78.98;98775.44;5097811;28;20618;-80
2021/01/10 08:51:33;;;;;;;17.93;10.67;;;2.00;86.00;;;1.74;79.93;98777.56;5097949;28;20998;-80
2021/01/10 08:54:08;;;;;;;14.60;10.77;;;2.20;87.20;;;1.86;78.63;98774.72;5067650;28;20634;-80
2021/01/10 08:56:36;;;;;;;18.50;11.10;;;2.30;86.40;;;1.96;79.49;98772.72;5096969;28;20980;-80
2021/01/10 08:59:05;;;;;;;18.83;12.03;;;2.50;86.00;;;1.95;79.27;98770.19;5096615;28;20634;-80
2021/01/10 09:01:33;;;;;;;15.93;11.17;;;2.50;85.40;;;1.96;79.36;98770.16;5098544;28;20603;-80
2021/01/10 09:04:04;;;;;;;15.87;10.07;;;2.50;86.70;;;2.08;80.31;98771.59;5096983;28;20634;-80
2021/01/10 09:06:57;;;;;;;23.50;16.97;;;2.60;86.40;;;2.24;79.80;98760.03;5096930;28;20611;-80
2021/01/10 09:09:46;;;;;;;25.40;15.83;;;2.70;86.20;;;2.38;79.66;98769.94;5079827;28;20599;-81
2021/01/10 09:12:29;;;;;;;18.83;12.67;;;2.90;86.80;;;2.44;79.00;98771.53;5076840;28;20604;-80
2021/01/10 09:15:08;;;;;;;37.30;21.20;;;2.90;85.50;;;2.53;79.12;98767.00;5079094;28;20653;-80
2021/01/10 09:17:39;;;;;;;29.17;17.67;;;3.00;85.30;;;2.61;78.86;98779.66;5096146;28;20649;-80
2021/01/10 09:20:13;;;;;;;21.03;13.30;;;3.10;84.90;;;2.66;78.38;98773.50;5096420;28;20611;-80
2021/01/10 09:22:41;;;;;;;24.43;15.83;;;3.10;84.60;;;2.71;78.22;98773.41;5062204;28;20611;-80
2021/01/10 09:25:15;;;;;;;26.63;17.57;;;3.20;84.30;;;2.68;78.34;98778.63;5096641;28;20698;-80
2021/01/10 09:28:08;;;;;;;22.63;14.10;;;3.20;83.70;;;2.76;78.60;98771.53;5097756;28;20642;-80
2021/01/10 09:30:38;;;;;;;20.97;13.23;;;3.20;84.20;;;2.75;78.11;98772.41;5078462;28;20600;-80
2021/01/10 09:33:07;;;;;;;22.50;13.67;;;3.20;84.00;;;2.64;77.46;98764.13;5079220;28;20633;-80
2021/01/10 09:35:39;;;;;;;19.30;13.60;;;3.10;83.30;;;2.75;78.39;98775.81;5096975;28;20974;-80
2021/01/10 09:38:12;;;;;;;21.17;13.70;;;3.20;83.90;;;2.86;77.86;98776.41;5096399;28;20610;-80
2021/01/10 09:41:04;;;;;;;22.47;14.50;;;3.30;83.70;;;2.94;78.71;98770.13;5096210;28;21211;-80
2021/01/10 09:43:41;;;;;;;36.60;18.80;;;3.40;84.40;;;3.05;78.12;98772.41;5097377;28;20599;-80
2021/01/10 09:46:29;;;;;;;11.20;8.37;;;3.50;84.10;;;3.01;76.88;98773.41;5096306;28;20618;-80
2021/01/10 09:49:00;;;;;;;12.47;7.87;;;3.50;83.00;;;2.93;76.07;98772.75;5096562;28;20687;-80
2021/01/10 09:51:38;;;;;;;10.00;6.90;;;3.50;81.90;;;2.92;76.79;98774.47;5097062;28;21272;-80
2021/01/10 09:54:14;;;;;;;11.60;7.97;;;3.40;82.10;;;3.07;77.15;98771.50;5096024;28;20646;-80
2021/01/10 09:56:50;;;;;;;10.70;7.23;;;3.50;82.40;;;2.94;76.32;98772.69;5078930;28;20654;-80
2021/01/10 09:59:39;;;;;;;11.90;7.93;;;3.40;81.20;;;2.93;76.21;98767.59;5097532;28;20606;-80
2021/01/10 10:02:13;;;;;;;18.37;12.37;;;3.40;81.70;;;2.90;76.40;98772.81;5097190;28;21222;-80
2021/01/10 10:04:44;;;;;;;15.20;10.77;;;3.30;81.40;;;2.96;76.00;98767.50;5097872;28;20663;-80
2021/01/10 10:07:13;;;;;;;19.90;9.73;;;3.40;81.30;;;3.06;76.80;98762.06;5097027;28;20615;-80
2021/01/10 10:09:52;;;;;;;13.87;8.90;;;3.50;81.80;;;3.01;76.57;98755.38;5097261;28;20599;-80
2021/01/10 10:12:23;;;;;;;14.47;8.77;;;3.40;81.20;;;2.80;76.37;98766.25;5097305;28;20606;-80
2021/01/10 10:14:59;;;;;;;13.10;9.23;;;3.30;80.90;;;2.75;76.85;98757.78;5095652;28;20692;-80
2021/01/10 10:17:32;;;;;;;13.87;8.30;;;3.20;81.30;;;2.88;76.29;98759.16;5098954;28;20857;-80
2021/01/10 10:20:00;;;;;;;11.10;7.90;;;3.30;82.10;;;3.01;76.62;98761.34;5083923;28;20603;-80
2021/01/10 10:22:32;;;;;;;14.80;9.47;;;3.40;82.10;;;3.15;76.50;98748.91;5079717;28;20624;-80
2021/01/10 10:25:02;;;;;;;11.20;7.93;;;3.60;82.30;;;3.30;75.13;98759.63;5063683;28;20631;-80
2021/01/10 10:27:33;;;;;;;13.43;8.37;;;3.70;81.30;;;3.32;75.76;98746.69;5081159;28;20658;-80
2021/01/10 10:30:01;;;;;;;13.60;8.53;;;3.70;80.90;;;3.28;75.00;98750.28;5096613;28;20612;-80
2021/01/10 10:32:29;;;;;;;11.70;8.10;;;3.80;80.30;;;3.20;75.63;98751.38;5080969;28;20611;-80
2021/01/10 10:34:57;;;;;;;11.43;8.40;;;3.70;80.20;;;3.28;76.04;98745.13;5079240;28;20638;-80